Ama, Louisiana
Current Conditions -  °F | °C
As of 4:53 PM on Sunday 21 Dec 2014 (Local Time) from KMSY Reporting Station
Haze Haze  
Wind Chill: 56°   Ceiling: 10000
Heat Index: 56°   Visibility: 6mi
Dew Point: 51°   Wind: 7mph
Humidity: 84%   Direction: 70°ENE
Pressure: 30"   Gusts: NA
Location:  29.95°N, 90.3°W
Report Text: KMSY 212253Z 07006KT 6SM HZ FEW015 BKN100 13/11 A3000 RMK AO2 SLP161 T01330106
Loading
Personal Weather Stations






























Interactive Weather Map New forecast layout! Learn more

10-Day Weather Forecast

Advertisements
Track Severe Weather on mobile